This is the latest recevied weather packets stored in our database for station/object SQ3RAX-13. If no packets are shown the sender has not sent any weather packets the latest 10 day(s).
| Time | Temp. | Humidity | Pressure | Rain* | Wind** | Luminosity | Snow |
|---|---|---|---|---|---|---|---|
| 1777709099 | 20° C | 48% | 1024 hPa | 0 mm | - | - | - |
| 1777708499 | 20° C | 48% | 1024 hPa | 0 mm | - | - | - |
| 1777707899 | 19.44° C | 50% | 1024 hPa | 0 mm | - | - | - |
| 1777707299 | 18.33° C | 49% | 1024 hPa | 0 mm | - | - | - |
| 1777706700 | 18.33° C | 49% | 1024 hPa | 0 mm | - | - | - |
| 1777706099 | 16.67° C | 57% | 1024 hPa | 0 mm | - | - | - |
| 1777705499 | 17.22° C | 55% | 1024 hPa | 0 mm | - | - | - |
| 1777704899 | 16.67° C | 57% | 1024 hPa | 0 mm | - | - | - |
| 1777704299 | 16.11° C | 58% | 1024 hPa | 0 mm | - | - | - |
| 1777703699 | 15° C | 58% | 1024 hPa | 0 mm | - | - | - |
| 1777703099 | 15° C | 58% | 1024 hPa | 0 mm | - | - | - |
| 1777702499 | 13.89° C | 63% | 1024 hPa | 0 mm | - | - | - |
| 1777701899 | 13.89° C | 63% | 1024 hPa | 0 mm | - | - | - |
| 1777701299 | 13.89° C | 63% | 1024 hPa | 0 mm | - | - | - |
| 1777700699 | 13.89° C | 67% | 1024 hPa | 0 mm | - | - | - |
| 1777700099 | 13.33° C | 68% | 1024 hPa | 0 mm | - | - | - |
| 1777699499 | 11.11° C | 71% | 1024 hPa | 0 mm | - | - | - |
| 1777698899 | 10° C | 74% | 1024 hPa | 0 mm | - | - | - |
| 1777698299 | 10.56° C | 77% | 1024 hPa | 0 mm | - | - | - |
| 1777697699 | 10.56° C | 77% | 1024 hPa | 0 mm | - | - | - |
| 1777697099 | 10° C | 78% | 1024 hPa | 0 mm | - | - | - |
| 1777696499 | 7.22° C | 83% | 1024 hPa | 0 mm | - | - | - |
| 1777695899 | 7.22° C | 83% | 1024 hPa | 0 mm | - | - | - |
| 1777695299 | 6.67° C | 84% | 1023 hPa | 0 mm | - | - | - |
| 1777694699 | 7.22° C | 82% | 1024 hPa | 0 mm | - | - | - |
* Rain latest hour (hover to see other rain measurements)
** Current wind speed in m/s (hover to see current wind gust speed)